createdAt,value
2022-12-04T00:01:26.616Z,89.53
2022-12-04T00:03:56.399Z,89.56
2022-12-04T00:06:25.149Z,89.64
2022-12-04T00:08:53.504Z,89.60
2022-12-04T00:11:24.220Z,89.69
2022-12-04T00:13:52.141Z,90.21
2022-12-04T00:16:23.281Z,90.32
2022-12-04T00:18:51.512Z,90.03
2022-12-04T00:21:20.445Z,90.25
2022-12-04T00:23:48.638Z,90.59
2022-12-04T00:26:19.545Z,90.51
2022-12-04T00:28:47.489Z,90.54
2022-12-04T00:31:18.057Z,90.61
2022-12-04T00:33:46.334Z,90.81
2022-12-04T00:36:16.363Z,90.92
2022-12-04T00:38:44.823Z,90.98
2022-12-04T00:41:14.758Z,90.71
2022-12-04T00:43:42.715Z,91.11
2022-12-04T00:46:10.482Z,91.02
2022-12-04T00:48:38.545Z,90.26
2022-12-04T00:51:08.715Z,90.64
2022-12-04T00:53:36.951Z,91.08
2022-12-04T00:56:06.499Z,90.59
2022-12-04T00:58:34.276Z,90.80
2022-12-04T01:01:14.426Z,90.06
2022-12-04T01:03:43.275Z,90.09
2022-12-04T01:06:30.845Z,90.28
2022-12-04T01:09:00.246Z,90.06
2022-12-04T01:11:29.833Z,90.78
2022-12-04T01:13:58.156Z,90.63
2022-12-04T01:16:29.762Z,90.91
2022-12-04T01:18:57.432Z,90.03
2022-12-04T01:21:25.105Z,89.89
2022-12-04T01:23:52.797Z,89.65
2022-12-04T01:26:20.592Z,89.97
2022-12-04T01:28:48.308Z,89.69
2022-12-04T01:31:18.939Z,89.98
2022-12-04T01:33:47.335Z,90.00
2022-12-04T01:36:24.265Z,89.94
2022-12-04T01:38:52.334Z,89.78
2022-12-04T01:41:24.472Z,90.42
2022-12-04T01:44:16.441Z,90.03
2022-12-04T01:46:46.950Z,90.55
2022-12-04T01:49:33.108Z,90.38
2022-12-04T01:52:28.952Z,90.72
2022-12-04T01:55:00.848Z,90.37
2022-12-04T01:57:32.506Z,90.70
2022-12-04T02:00:11.785Z,90.47
2022-12-04T02:02:45.727Z,90.37
2022-12-04T02:05:16.863Z,90.13
2022-12-04T02:07:47.466Z,90.04
2022-12-04T02:10:17.302Z,89.82
2022-12-04T02:13:23.451Z,89.77
2022-12-04T02:16:06.303Z,90.29
2022-12-04T02:18:52.221Z,90.31
2022-12-04T02:21:45.793Z,91.03
2022-12-04T02:24:33.886Z,90.86
2022-12-04T02:27:05.652Z,91.15
2022-12-04T02:29:57.817Z,91.42
2022-12-04T02:33:04.444Z,91.09
2022-12-04T02:35:39.934Z,91.62
2022-12-04T02:38:31.789Z,90.94
2022-12-04T02:41:22.196Z,91.15
2022-12-04T02:43:55.480Z,90.90
2022-12-04T02:46:33.686Z,91.10
2022-12-04T02:49:04.709Z,90.85
2022-12-04T02:51:35.423Z,91.46
2022-12-04T02:54:21.573Z,91.58
2022-12-04T02:56:51.993Z,90.46
2022-12-04T02:59:35.881Z,90.64
2022-12-04T03:02:12.449Z,89.95
2022-12-04T03:04:42.572Z,90.30
2022-12-04T03:07:15.022Z,89.81
2022-12-04T03:09:54.746Z,90.45
2022-12-04T03:12:39.482Z,89.86
2022-12-04T03:15:29.661Z,90.05
2022-12-04T03:18:10.292Z,90.09
2022-12-04T03:20:39.512Z,90.58
2022-12-04T03:23:14.803Z,90.89
2022-12-04T03:26:06.615Z,91.02
2022-12-04T03:28:46.943Z,91.52
2022-12-04T03:31:17.040Z,90.99
2022-12-04T03:33:47.872Z,91.63
2022-12-04T03:36:21.570Z,91.71
2022-12-04T03:39:08.598Z,91.63
2022-12-04T03:41:57.975Z,91.18
2022-12-04T03:44:44.052Z,91.20
2022-12-04T03:47:30.241Z,91.45
2022-12-04T03:50:02.960Z,91.90
2022-12-04T03:53:00.248Z,91.75
2022-12-04T03:55:35.348Z,91.97
2022-12-04T03:58:09.489Z,91.99
2022-12-04T04:00:41.430Z,92.17
2022-12-04T04:03:31.737Z,91.47
2022-12-04T04:06:07.845Z,91.90
2022-12-04T04:08:40.035Z,91.44
2022-12-04T04:11:17.141Z,91.80
2022-12-04T04:14:15.825Z,91.46
2022-12-04T04:17:08.510Z,91.28
2022-12-04T04:19:58.596Z,91.17
2022-12-04T04:22:45.731Z,91.27
2022-12-04T04:25:18.242Z,90.81
2022-12-04T04:27:57.396Z,90.69
2022-12-04T04:30:26.721Z,90.78
2022-12-04T04:33:06.348Z,90.96
2022-12-04T04:35:44.292Z,91.01
2022-12-04T04:38:11.758Z,90.95
2022-12-04T04:40:54.567Z,90.68
2022-12-04T04:43:40.034Z,90.75
2022-12-04T04:46:17.352Z,90.93
2022-12-04T04:48:49.086Z,90.52
2022-12-04T04:51:17.975Z,90.63
2022-12-04T04:53:55.772Z,90.38
2022-12-04T04:56:23.685Z,90.84
2022-12-04T04:58:51.256Z,90.09
2022-12-04T05:01:22.616Z,90.57
2022-12-04T05:03:50.337Z,90.76
2022-12-04T05:06:18.291Z,90.62
2022-12-04T05:08:46.482Z,90.29
2022-12-04T05:11:16.125Z,90.91
2022-12-04T05:13:44.131Z,90.51
2022-12-04T05:16:14.388Z,91.00
2022-12-04T05:19:02.611Z,90.63
2022-12-04T05:21:30.496Z,91.57
2022-12-04T05:23:58.171Z,91.33
2022-12-04T05:26:26.464Z,91.48
2022-12-04T05:28:53.996Z,91.08
2022-12-04T05:31:21.582Z,91.24
2022-12-04T05:33:49.238Z,91.52
2022-12-04T05:36:16.887Z,92.41
2022-12-04T05:38:44.457Z,92.17
2022-12-04T05:41:12.016Z,92.38
2022-12-04T05:43:39.549Z,91.90
2022-12-04T05:46:08.840Z,92.30
2022-12-04T05:48:36.619Z,92.25
2022-12-04T05:51:08.484Z,92.17
2022-12-04T05:53:36.722Z,92.32
2022-12-04T05:56:05.551Z,92.51
2022-12-04T05:58:37.992Z,92.57
2022-12-04T06:01:20.758Z,93.09
2022-12-04T06:03:48.381Z,93.25
2022-12-04T06:06:21.711Z,92.66
2022-12-04T06:08:51.687Z,92.88
2022-12-04T06:11:26.244Z,92.28
2022-12-04T06:13:54.294Z,92.58
2022-12-04T06:16:28.340Z,92.46
2022-12-04T06:18:59.389Z,92.46
2022-12-04T06:21:30.519Z,92.74
2022-12-04T06:23:58.372Z,93.29
2022-12-04T06:26:27.319Z,93.25
2022-12-04T06:28:59.054Z,93.31
2022-12-04T06:31:28.997Z,92.61
2022-12-04T06:33:58.038Z,92.99
2022-12-04T06:36:25.704Z,93.11
2022-12-04T06:38:56.036Z,93.09
2022-12-04T06:41:25.312Z,93.64
2022-12-04T06:43:53.198Z,93.55
2022-12-04T06:46:26.158Z,93.87
2022-12-04T06:48:55.761Z,93.10
2022-12-04T06:51:28.985Z,92.85
2022-12-04T06:53:56.957Z,93.41
2022-12-04T06:56:27.629Z,93.45
2022-12-04T06:58:57.321Z,92.64
2022-12-04T07:01:27.919Z,93.22
2022-12-04T07:03:57.175Z,92.47
2022-12-04T07:06:26.275Z,93.24
2022-12-04T07:08:58.280Z,92.70
2022-12-04T07:11:26.251Z,92.31
2022-12-04T07:13:55.300Z,92.73
2022-12-04T07:16:24.790Z,92.39
2022-12-04T07:18:56.731Z,93.03
2022-12-04T07:21:27.698Z,92.57
2022-12-04T07:23:58.511Z,92.74
2022-12-04T07:26:28.564Z,92.18
2022-12-04T07:28:57.127Z,92.78
2022-12-04T07:31:26.243Z,92.20
2022-12-04T07:33:54.696Z,92.10
2022-12-04T07:36:24.819Z,92.59
2022-12-04T07:38:52.503Z,92.84
2022-12-04T07:41:20.178Z,92.66
2022-12-04T07:43:48.351Z,92.74
2022-12-04T07:46:19.192Z,92.95
2022-12-04T07:48:47.131Z,92.74
2022-12-04T07:51:17.955Z,92.82
2022-12-04T07:53:46.255Z,92.81
2022-12-04T07:56:14.643Z,92.88
2022-12-04T07:58:42.963Z,92.20
2022-12-04T08:01:21.144Z,92.45
2022-12-04T08:03:51.391Z,92.57
2022-12-04T08:06:21.375Z,92.53
2022-12-04T08:08:49.977Z,92.25
2022-12-04T08:11:22.312Z,92.63
2022-12-04T08:13:55.777Z,92.67
2022-12-04T08:16:24.190Z,92.91
2022-12-04T08:18:53.156Z,92.62
2022-12-04T08:21:23.788Z,92.82
2022-12-04T08:23:53.538Z,92.89
2022-12-04T08:26:23.239Z,93.22
2022-12-04T08:28:54.504Z,93.14
2022-12-04T08:31:25.649Z,94.16
2022-12-04T08:33:56.996Z,94.17
2022-12-04T08:36:25.106Z,93.69
2022-12-04T08:38:53.065Z,94.16
2022-12-04T08:41:24.078Z,93.90
2022-12-04T08:43:54.883Z,93.88
2022-12-04T08:46:23.670Z,93.71
2022-12-04T08:48:51.567Z,92.88
2022-12-04T08:51:23.491Z,93.78
2022-12-04T08:53:56.557Z,93.11
2022-12-04T08:56:24.941Z,93.29
2022-12-04T08:58:52.502Z,93.06
2022-12-04T09:01:20.205Z,93.11
2022-12-04T09:03:47.895Z,93.57
2022-12-04T09:06:16.334Z,92.99
2022-12-04T09:08:44.260Z,93.34
2022-12-04T09:11:18.150Z,92.95
2022-12-04T09:13:46.304Z,93.72
2022-12-04T09:16:17.121Z,93.82
2022-12-04T09:18:45.242Z,93.21
2022-12-04T09:21:16.105Z,93.41
2022-12-04T09:23:44.071Z,93.65
2022-12-04T09:26:26.596Z,93.71
2022-12-04T09:28:55.694Z,93.88
2022-12-04T09:31:24.430Z,93.57
2022-12-04T09:33:53.122Z,93.29
2022-12-04T09:36:21.077Z,92.93
2022-12-04T09:38:51.095Z,93.47
2022-12-04T09:41:34.064Z,92.87
2022-12-04T09:44:15.461Z,93.18
2022-12-04T09:46:51.269Z,93.51
2022-12-04T09:49:46.472Z,92.63
2022-12-04T09:52:35.559Z,93.46
2022-12-04T09:55:05.575Z,93.74
2022-12-04T09:57:48.830Z,92.82
2022-12-04T10:00:19.602Z,93.40
2022-12-04T10:03:04.015Z,92.50
2022-12-04T10:05:53.027Z,92.49
2022-12-04T10:08:35.379Z,92.86
2022-12-04T10:11:12.459Z,93.21
2022-12-04T10:14:06.421Z,93.11
2022-12-04T10:17:12.663Z,93.34
2022-12-04T10:19:46.029Z,93.50
2022-12-04T10:22:22.503Z,92.43
2022-12-04T10:25:15.318Z,92.75
2022-12-04T10:27:47.437Z,92.87
2022-12-04T10:30:22.488Z,92.78
2022-12-04T10:32:57.252Z,92.31
2022-12-04T10:35:29.647Z,91.90
2022-12-04T10:38:02.149Z,89.91
2022-12-04T10:40:49.132Z,87.08
2022-12-04T10:43:28.489Z,85.94
2022-12-04T10:45:56.050Z,86.39
2022-12-04T10:48:32.615Z,86.25
2022-12-04T10:51:00.330Z,86.66
2022-12-04T10:53:35.352Z,88.05
2022-12-04T10:56:23.006Z,89.28
2022-12-04T10:59:02.302Z,90.24
2022-12-04T11:01:32.637Z,90.94
2022-12-04T11:04:08.290Z,91.04
2022-12-04T11:06:36.173Z,91.25
2022-12-04T11:09:04.688Z,91.56
2022-12-04T11:11:35.909Z,91.55
2022-12-04T11:14:13.017Z,90.92
2022-12-04T11:16:44.836Z,90.74
2022-12-04T11:19:38.734Z,90.49
2022-12-04T11:22:19.356Z,90.25
2022-12-04T11:24:54.759Z,90.42
2022-12-04T11:27:28.425Z,90.65
2022-12-04T11:29:56.906Z,90.67
2022-12-04T11:32:28.709Z,90.99
2022-12-04T11:35:12.382Z,90.62
2022-12-04T11:37:45.128Z,90.54
2022-12-04T11:40:18.569Z,90.25
2022-12-04T11:42:59.701Z,90.33
2022-12-04T11:45:27.265Z,90.25
2022-12-04T11:48:02.249Z,90.10
2022-12-04T11:50:42.632Z,90.07
2022-12-04T11:53:24.294Z,90.59
2022-12-04T11:56:35.526Z,90.10
2022-12-04T11:59:18.282Z,90.20
2022-12-04T12:02:04.390Z,90.65
2022-12-04T12:04:50.737Z,90.35
2022-12-04T12:07:42.970Z,90.60
2022-12-04T12:10:16.586Z,90.30
2022-12-04T12:13:05.733Z,90.63
2022-12-04T12:15:55.241Z,90.60
2022-12-04T12:18:25.520Z,90.48
2022-12-04T12:21:06.013Z,90.52
2022-12-04T12:23:52.268Z,90.61
2022-12-04T12:26:20.255Z,90.81
2022-12-04T12:29:03.737Z,90.61
2022-12-04T12:31:52.976Z,90.83
2022-12-04T12:34:37.542Z,90.73
2022-12-04T12:37:31.103Z,90.71
2022-12-04T12:40:12.974Z,91.05
2022-12-04T12:42:58.445Z,89.83
2022-12-04T12:46:00.788Z,89.62
2022-12-04T12:48:46.680Z,89.59
2022-12-04T12:51:36.677Z,89.58
2022-12-04T12:54:38.152Z,89.09
2022-12-04T12:57:37.638Z,88.89
2022-12-04T13:00:13.359Z,88.74
2022-12-04T13:03:03.801Z,89.28
2022-12-04T13:05:37.767Z,89.04
2022-12-04T13:08:25.977Z,88.28
2022-12-04T13:10:53.508Z,88.68
2022-12-04T13:13:26.160Z,88.58
2022-12-04T13:16:05.809Z,88.98
2022-12-04T13:18:49.823Z,88.58
2022-12-04T13:21:38.739Z,88.59
2022-12-04T13:24:26.518Z,88.75
2022-12-04T13:27:08.560Z,88.49
2022-12-04T13:30:03.873Z,88.77
2022-12-04T13:32:53.660Z,88.83
2022-12-04T13:35:56.228Z,88.67
2022-12-04T13:38:33.111Z,88.68
2022-12-04T13:41:04.530Z,88.61
2022-12-04T13:43:37.344Z,89.10
2022-12-04T13:46:07.413Z,88.88
2022-12-04T13:48:41.326Z,89.50
2022-12-04T13:51:15.128Z,89.74
2022-12-04T13:53:44.019Z,89.28
2022-12-04T13:56:45.861Z,89.53
2022-12-04T13:59:28.539Z,89.41
2022-12-04T14:02:07.769Z,89.32
2022-12-04T14:04:52.655Z,89.63
2022-12-04T14:07:33.690Z,90.16
2022-12-04T14:10:27.572Z,89.49
2022-12-04T14:13:21.431Z,89.36
2022-12-04T14:16:02.809Z,89.28
2022-12-04T14:18:31.072Z,89.73
2022-12-04T14:21:05.505Z,89.23
2022-12-04T14:23:36.991Z,89.66
2022-12-04T14:26:05.859Z,89.25
2022-12-04T14:28:41.739Z,89.50
2022-12-04T14:31:35.561Z,89.93
2022-12-04T14:34:22.942Z,89.80
2022-12-04T14:36:53.887Z,89.86
2022-12-04T14:39:26.153Z,90.15
2022-12-04T14:42:04.036Z,90.06
2022-12-04T14:44:32.292Z,90.22
2022-12-04T14:47:26.961Z,90.31
2022-12-04T14:50:39.454Z,89.95
2022-12-04T14:53:21.249Z,89.99
2022-12-04T14:56:07.704Z,89.81
2022-12-04T14:58:38.454Z,89.83
2022-12-04T15:01:29.407Z,89.67
2022-12-04T15:04:01.554Z,89.95
2022-12-04T15:06:32.531Z,89.20
2022-12-04T15:09:20.808Z,89.35
2022-12-04T15:12:09.386Z,89.41
2022-12-04T15:14:50.462Z,88.92
2022-12-04T15:17:18.793Z,88.97
2022-12-04T15:19:46.408Z,89.04
2022-12-04T15:22:26.409Z,89.02
2022-12-04T15:24:55.582Z,89.28
2022-12-04T15:27:31.928Z,88.95
2022-12-04T15:30:02.390Z,89.03
2022-12-04T15:32:32.131Z,88.64
2022-12-04T15:35:09.327Z,88.63
2022-12-04T15:37:37.218Z,88.58
2022-12-04T15:40:08.823Z,88.88
2022-12-04T15:42:36.344Z,89.33
2022-12-04T15:45:09.793Z,89.11
2022-12-04T15:47:50.580Z,88.97
2022-12-04T15:50:18.103Z,89.05
2022-12-04T15:53:00.808Z,88.48
2022-12-04T15:55:31.766Z,88.85
2022-12-04T15:58:03.528Z,88.85
2022-12-04T16:00:40.423Z,89.25
2022-12-04T16:03:31.316Z,89.00
2022-12-04T16:06:07.693Z,89.65
2022-12-04T16:08:38.669Z,89.98
2022-12-04T16:11:28.932Z,89.26
2022-12-04T16:14:05.163Z,89.16
2022-12-04T16:16:33.114Z,88.98
2022-12-04T16:19:09.874Z,89.86
2022-12-04T16:21:37.407Z,89.74
2022-12-04T16:24:06.900Z,89.80
2022-12-04T16:26:34.586Z,89.92
2022-12-04T16:29:02.201Z,89.57
2022-12-04T16:31:29.991Z,89.54
2022-12-04T16:33:57.662Z,89.77
2022-12-04T16:36:25.335Z,90.24
2022-12-04T16:38:53.058Z,89.88
2022-12-04T16:41:21.761Z,90.25
2022-12-04T16:44:02.817Z,89.33
2022-12-04T16:46:30.522Z,89.82
2022-12-04T16:49:02.729Z,89.66
2022-12-04T16:51:33.851Z,89.91
2022-12-04T16:54:01.345Z,89.47
2022-12-04T16:56:28.908Z,90.13
2022-12-04T16:58:56.427Z,89.49
2022-12-04T17:01:27.288Z,89.98
2022-12-04T17:03:54.972Z,90.20
2022-12-04T17:06:22.590Z,89.73
2022-12-04T17:08:50.186Z,89.61
2022-12-04T17:11:18.741Z,90.10
2022-12-04T17:13:46.607Z,89.15
2022-12-04T17:16:15.329Z,89.73
2022-12-04T17:18:43.963Z,89.53
2022-12-04T17:21:13.689Z,89.38
2022-12-04T17:23:41.831Z,89.99
2022-12-04T17:26:11.992Z,89.91
2022-12-04T17:28:39.934Z,90.19
2022-12-04T17:31:18.025Z,90.13
2022-12-04T17:33:46.599Z,89.91
2022-12-04T17:36:16.596Z,89.82
2022-12-04T17:38:44.851Z,89.59
2022-12-04T17:41:14.187Z,89.50
2022-12-04T17:43:43.102Z,89.42
2022-12-04T17:46:13.481Z,89.51
2022-12-04T17:48:41.522Z,89.19
2022-12-04T17:51:15.235Z,90.18
2022-12-04T17:53:43.229Z,89.30
2022-12-04T17:56:20.406Z,90.02
2022-12-04T17:58:48.809Z,90.82
2022-12-04T18:01:20.286Z,90.45
2022-12-04T18:03:52.935Z,90.16
2022-12-04T18:06:24.098Z,90.33
2022-12-04T18:08:52.518Z,90.76
2022-12-04T18:11:21.866Z,90.48
2022-12-04T18:13:54.660Z,90.84
2022-12-04T18:16:22.311Z,89.96
2022-12-04T18:18:50.913Z,90.77
2022-12-04T18:21:18.988Z,90.45
2022-12-04T18:23:46.567Z,89.67
2022-12-04T18:26:20.685Z,90.78
2022-12-04T18:28:49.988Z,90.29
2022-12-04T18:31:19.307Z,89.77
2022-12-04T18:33:47.922Z,89.59
2022-12-04T18:36:21.904Z,90.73
2022-12-04T18:39:05.404Z,89.87
2022-12-04T18:41:33.133Z,90.52
2022-12-04T18:44:00.877Z,90.71
2022-12-04T18:46:29.039Z,90.33
2022-12-04T18:48:59.123Z,89.74
2022-12-04T18:51:31.887Z,89.98
2022-12-04T18:54:02.721Z,90.26
2022-12-04T18:56:32.583Z,89.93
2022-12-04T18:59:02.984Z,89.84
2022-12-04T19:01:33.569Z,90.34
2022-12-04T19:04:04.168Z,89.90
2022-12-04T19:06:34.884Z,90.58
2022-12-04T19:09:07.369Z,90.60
2022-12-04T19:11:35.457Z,90.05
2022-12-04T19:14:08.270Z,90.15
2022-12-04T19:16:40.286Z,90.61
2022-12-04T19:19:09.088Z,90.18
2022-12-04T19:21:36.739Z,90.58
2022-12-04T19:24:04.648Z,90.46
2022-12-04T19:26:34.165Z,90.38
2022-12-04T19:29:02.590Z,90.52
2022-12-04T19:31:33.115Z,89.55
2022-12-04T19:34:01.157Z,90.34
2022-12-04T19:36:30.632Z,90.17
2022-12-04T19:38:59.006Z,89.82
2022-12-04T19:41:30.992Z,90.05
2022-12-04T19:44:00.389Z,89.94
2022-12-04T19:46:30.721Z,89.91
2022-12-04T19:49:02.111Z,90.00
2022-12-04T19:51:34.149Z,89.36
2022-12-04T19:54:02.023Z,89.94
2022-12-04T19:56:31.755Z,89.94
2022-12-04T19:59:03.157Z,89.80
2022-12-04T20:01:32.372Z,89.69
2022-12-04T20:04:02.767Z,89.96
2022-12-04T20:06:35.168Z,89.83
2022-12-04T20:09:06.621Z,89.16
2022-12-04T20:11:34.637Z,89.44
2022-12-04T20:14:03.503Z,89.44
2022-12-04T20:16:33.270Z,89.11
2022-12-04T20:19:03.619Z,88.81
2022-12-04T20:21:32.561Z,88.63
2022-12-04T20:24:05.533Z,89.39
2022-12-04T20:27:37.316Z,89.47
2022-12-04T20:30:05.922Z,89.21
2022-12-04T20:32:33.795Z,89.21
2022-12-04T20:35:01.440Z,88.73
2022-12-04T20:37:28.940Z,89.13
2022-12-04T20:39:56.877Z,89.20
2022-12-04T20:42:28.652Z,88.30
2022-12-04T20:44:59.459Z,88.69
2022-12-04T20:47:28.225Z,88.96
2022-12-04T20:49:55.952Z,89.17
2022-12-04T20:52:23.672Z,88.75
2022-12-04T20:54:51.288Z,89.08
2022-12-04T20:57:18.998Z,89.58
2022-12-04T20:59:46.560Z,89.07
2022-12-04T21:02:14.400Z,88.87
2022-12-04T21:04:41.985Z,89.52
2022-12-04T21:07:09.667Z,89.16
2022-12-04T21:09:37.373Z,88.74
2022-12-04T21:12:25.134Z,88.56
2022-12-04T21:15:11.067Z,89.13
2022-12-04T21:17:38.682Z,88.45
2022-12-04T21:20:08.300Z,89.18
2022-12-04T21:22:36.380Z,88.75
2022-12-04T21:25:04.686Z,88.51
2022-12-04T21:27:32.250Z,88.91
2022-12-04T21:29:59.990Z,88.50
2022-12-04T21:32:27.851Z,87.61
2022-12-04T21:34:55.373Z,88.50
2022-12-04T21:37:23.001Z,88.07
2022-12-04T21:39:50.566Z,88.00
2022-12-04T21:42:30.330Z,87.77
2022-12-04T21:44:59.382Z,87.71
2022-12-04T21:47:27.601Z,88.25
2022-12-04T21:49:55.592Z,87.41
2022-12-04T21:52:24.469Z,88.01
2022-12-04T21:54:53.414Z,87.75
2022-12-04T21:57:21.842Z,88.11
2022-12-04T21:59:52.170Z,88.25
2022-12-04T22:02:20.660Z,87.96
2022-12-04T22:04:48.708Z,88.20
2022-12-04T22:07:16.277Z,88.13
2022-12-04T22:09:43.869Z,87.69
2022-12-04T22:12:33.250Z,88.49
2022-12-04T22:14:59.044Z,88.25
2022-12-04T22:17:29.646Z,87.85
2022-12-04T22:19:57.504Z,87.53
2022-12-04T22:22:25.158Z,88.34
2022-12-04T22:24:52.762Z,88.02
2022-12-04T22:27:20.282Z,88.10
2022-12-04T22:29:50.885Z,87.47
2022-12-04T22:32:20.120Z,88.04
2022-12-04T22:34:49.217Z,87.93
2022-12-04T22:37:17.274Z,88.02
2022-12-04T22:39:44.809Z,87.44
2022-12-04T22:42:12.345Z,88.40
2022-12-04T22:44:39.857Z,87.88
2022-12-04T22:47:07.497Z,87.56
2022-12-04T22:49:35.115Z,87.51
2022-12-04T22:52:02.753Z,87.56
2022-12-04T22:54:30.340Z,87.38
2022-12-04T22:56:57.876Z,86.72
2022-12-04T22:59:25.364Z,87.50
2022-12-04T23:01:52.943Z,86.61
2022-12-04T23:04:20.413Z,86.67
2022-12-04T23:06:47.988Z,87.53
2022-12-04T23:09:17.080Z,87.13
2022-12-04T23:11:45.218Z,87.40
2022-12-04T23:14:14.762Z,86.95
2022-12-04T23:16:42.949Z,87.14
2022-12-04T23:19:15.561Z,86.89
2022-12-04T23:21:43.968Z,86.89
2022-12-04T23:24:12.333Z,86.35
2022-12-04T23:26:43.147Z,86.62
2022-12-04T23:29:37.067Z,87.09
2022-12-04T23:31:59.313Z,86.67
2022-12-04T23:34:26.990Z,86.70
2022-12-04T23:36:54.554Z,86.33
2022-12-04T23:39:22.180Z,86.47
2022-12-04T23:41:49.840Z,87.05
2022-12-04T23:44:17.380Z,86.35
2022-12-04T23:46:45.489Z,86.78
2022-12-04T23:49:13.072Z,86.43
2022-12-04T23:51:40.665Z,86.36
2022-12-04T23:54:08.196Z,86.19
2022-12-04T23:56:35.904Z,86.43
2022-12-04T23:59:03.650Z,86.45
